NCAR-RAP Real-Time Weather Data

Output produced by METARs form (01 December 2020  18:41 UTC)
found at http://weather.rap.ucar.edu/surface/
 
KROA 011654Z 26016G23KT 10SM OVC042 03/M06 A2986 RMK AO2 SLP116 T00331061
KROA 011554Z 28011G20KT 10SM BKN046 03/M07 A2986 RMK AO2 PK WND 30035/1459 SLP115 T00281067
KROA 011454Z 31017G28KT 10SM OVC042 03/M07 A2983 RMK AO2 PK WND 30028/1452 SLP105 T00281067 51026
KROA 011354Z 28014G30KT 10SM OVC041 03/M06 A2980 RMK AO2 PK WND 30030/1346 SLP095 T00281056
KROA 011254Z 30020G30KT 10SM OVC041 02/M06 A2978 RMK AO2 PK WND 28030/1252 SLP089 T00221056
KROA 011154Z 30012G23KT 10SM BKN043 OVC100 02/M06 A2975 RMK AO2 SLP078 70014 T00221056 10039 20022 53020
KROA 011054Z 29011G17KT 10SM BKN041 OVC110 03/M05 A2972 RMK AO2 PK WND 32028/1002 SLP067 T00281050
KROA 010954Z 30016KT 10SM SCT041 OVC100 03/M05 A2969 RMK AO2 SLP058 T00281050
KROA 010854Z 27009KT 10SM BKN040 BKN090 OVC110 03/M04 A2969 RMK AO2 SLP055 T00281039 53009
KROA 010754Z 27010G18KT 10SM FEW039 SCT060 OVC100 03/M04 A2968 RMK AO2 SLP051 T00331044
KROA 010654Z 28012G16KT 10SM FEW039 OVC095 03/M04 A2966 RMK AO2 SLP045 T00331044
KROA 010554Z 29008G19KT 10SM BKN041 OVC100 04/M04 A2966 RMK AO2 SLP043 T00391039 10056 20039 50007
KROA 010454Z 30009KT 10SM BKN038 OVC100 04/M03 A2966 RMK AO2 SLP044 T00441028 401390044
KROA 010354Z 30009KT 10SM BKN039 04/M03 A2965 RMK AO2 SLP042 T00441028